createdAt,value
2023-08-26T00:01:17.408Z,63.31
2023-08-26T00:04:20.671Z,63.15
2023-08-26T00:07:22.821Z,63.29
2023-08-26T00:10:25.345Z,63.40
2023-08-26T00:13:27.469Z,63.48
2023-08-26T00:16:29.868Z,63.67
2023-08-26T00:19:32.623Z,63.61
2023-08-26T00:22:35.470Z,63.66
2023-08-26T00:25:37.539Z,63.79
2023-08-26T00:28:39.988Z,63.88
2023-08-26T00:31:42.469Z,63.97
2023-08-26T00:34:45.041Z,64.03
2023-08-26T00:37:47.874Z,64.09
2023-08-26T00:40:50.283Z,64.13
2023-08-26T00:43:52.373Z,64.33
2023-08-26T00:46:55.632Z,64.80
2023-08-26T00:49:57.904Z,65.07
2023-08-26T00:53:00.397Z,65.48
2023-08-26T00:56:02.472Z,65.67
2023-08-26T00:59:05.651Z,65.75
2023-08-26T01:02:09.483Z,65.75
2023-08-26T01:05:11.942Z,65.66
2023-08-26T01:08:14.619Z,65.62
2023-08-26T01:11:16.996Z,65.53
2023-08-26T01:14:28.071Z,65.64
2023-08-26T01:17:31.103Z,65.93
2023-08-26T01:20:34.253Z,65.73
2023-08-26T01:23:40.396Z,65.63
2023-08-26T01:26:42.628Z,65.70
2023-08-26T01:29:45.154Z,65.64
2023-08-26T01:32:49.849Z,65.64
2023-08-26T01:35:57.640Z,65.64
2023-08-26T01:38:59.927Z,65.84
2023-08-26T01:42:03.684Z,65.97
2023-08-26T01:45:06.550Z,66.00
2023-08-26T01:48:08.983Z,66.43
2023-08-26T01:51:13.120Z,65.91
2023-08-26T01:54:16.677Z,66.59
2023-08-26T01:57:18.923Z,67.08
2023-08-26T02:00:21.493Z,67.30
2023-08-26T02:03:23.564Z,67.58
2023-08-26T02:06:26.133Z,67.79
2023-08-26T02:09:28.246Z,67.80
2023-08-26T02:12:30.645Z,67.87
2023-08-26T02:15:34.295Z,68.05
2023-08-26T02:18:36.818Z,68.23
2023-08-26T02:21:39.296Z,68.38
2023-08-26T02:24:41.680Z,68.82
2023-08-26T02:27:44.195Z,68.85
2023-08-26T02:30:46.730Z,68.89
2023-08-26T02:33:49.092Z,69.00
2023-08-26T02:36:51.196Z,68.79
2023-08-26T02:39:53.654Z,69.00
2023-08-26T02:42:57.404Z,69.00
2023-08-26T02:46:00.078Z,68.89
2023-08-26T02:49:02.573Z,69.13
2023-08-26T02:52:05.143Z,68.89
2023-08-26T02:55:10.666Z,68.97
2023-08-26T02:58:13.138Z,69.21
2023-08-26T03:01:17.638Z,69.03
2023-08-26T03:04:20.842Z,68.99
2023-08-26T03:07:22.981Z,69.08
2023-08-26T03:10:25.619Z,69.02
2023-08-26T03:13:28.505Z,68.93
2023-08-26T03:16:31.686Z,68.77
2023-08-26T03:19:34.148Z,68.59
2023-08-26T03:22:36.752Z,68.38
2023-08-26T03:25:39.413Z,68.20
2023-08-26T03:28:41.961Z,68.02
2023-08-26T03:31:45.381Z,67.97
2023-08-26T03:34:48.656Z,67.95
2023-08-26T03:37:51.468Z,67.99
2023-08-26T03:40:53.883Z,68.04
2023-08-26T03:43:57.698Z,68.09
2023-08-26T03:47:00.160Z,67.84
2023-08-26T03:50:03.912Z,67.80
2023-08-26T03:53:06.451Z,67.87
2023-08-26T03:56:08.707Z,68.10
2023-08-26T03:59:11.464Z,68.05
2023-08-26T04:02:13.561Z,68.26
2023-08-26T04:05:17.499Z,68.24
2023-08-26T04:08:20.355Z,68.43
2023-08-26T04:11:22.868Z,68.27
2023-08-26T04:14:25.146Z,68.28
2023-08-26T04:17:27.671Z,68.80
2023-08-26T04:20:29.793Z,68.95
2023-08-26T04:23:32.168Z,68.95
2023-08-26T04:26:35.323Z,69.22
2023-08-26T04:29:37.815Z,69.32
2023-08-26T04:32:40.277Z,69.19
2023-08-26T04:35:44.500Z,69.24
2023-08-26T04:38:47.925Z,68.82
2023-08-26T04:41:50.352Z,69.07
2023-08-26T04:44:52.536Z,68.83
2023-08-26T04:47:56.094Z,69.05
2023-08-26T04:50:58.498Z,69.27
2023-08-26T04:54:01.155Z,68.41
2023-08-26T04:57:03.811Z,68.66
2023-08-26T05:00:12.863Z,68.20
2023-08-26T05:03:15.312Z,68.12
2023-08-26T05:06:17.901Z,67.98
2023-08-26T05:09:19.998Z,67.82
2023-08-26T05:12:23.744Z,67.51
2023-08-26T05:15:27.955Z,67.43
2023-08-26T05:18:30.782Z,67.48
2023-08-26T05:21:33.176Z,67.27
2023-08-26T05:24:35.637Z,67.02
2023-08-26T05:27:38.260Z,67.19
2023-08-26T05:30:41.017Z,66.89
2023-08-26T05:33:44.259Z,66.99
2023-08-26T05:36:46.747Z,67.07
2023-08-26T05:39:48.918Z,66.74
2023-08-26T05:42:51.313Z,66.43
2023-08-26T05:45:56.177Z,66.64
2023-08-26T05:48:58.751Z,66.25
2023-08-26T05:52:00.885Z,66.11
2023-08-26T05:55:03.671Z,65.86
2023-08-26T05:58:05.775Z,65.61
2023-08-26T06:01:08.206Z,65.57
2023-08-26T06:04:10.783Z,65.21
2023-08-26T06:07:13.077Z,64.75
2023-08-26T06:10:15.709Z,64.53
2023-08-26T06:13:17.889Z,64.00
2023-08-26T06:16:21.689Z,63.62
2023-08-26T06:19:23.864Z,62.37
2023-08-26T06:22:26.234Z,61.47
2023-08-26T06:25:28.319Z,60.61
2023-08-26T06:28:32.012Z,61.32
2023-08-26T06:31:34.393Z,60.80
2023-08-26T06:34:36.869Z,60.61
2023-08-26T06:37:39.183Z,60.59
2023-08-26T06:40:41.605Z,59.60
2023-08-26T06:43:43.722Z,59.11
2023-08-26T06:46:48.541Z,59.18
2023-08-26T06:49:50.770Z,58.00
2023-08-26T06:52:53.250Z,57.12
2023-08-26T06:55:56.483Z,58.04
2023-08-26T06:59:01.244Z,56.91
2023-08-26T07:02:03.969Z,56.56
2023-08-26T07:05:07.008Z,56.72
2023-08-26T07:08:09.793Z,55.45
2023-08-26T07:11:13.606Z,55.13
2023-08-26T07:14:15.755Z,53.72
2023-08-26T07:17:19.088Z,53.66
2023-08-26T07:20:21.729Z,52.93
2023-08-26T07:23:24.179Z,53.53
2023-08-26T07:26:26.380Z,52.38
2023-08-26T07:29:28.843Z,51.90
2023-08-26T07:32:31.028Z,51.86
2023-08-26T07:35:33.446Z,50.47
2023-08-26T07:38:35.896Z,50.63
2023-08-26T07:41:38.317Z,50.18
2023-08-26T07:44:40.410Z,49.11
2023-08-26T07:50:48.593Z,49.10
2023-08-26T07:53:51.014Z,49.03
2023-08-26T07:56:53.179Z,48.10
2023-08-26T07:59:55.541Z,47.17
2023-08-26T08:02:57.997Z,46.27
2023-08-26T08:06:00.658Z,46.91
2023-08-26T08:09:02.820Z,45.95
2023-08-26T08:12:05.433Z,44.89
2023-08-26T08:15:07.877Z,44.72
2023-08-26T08:18:10.542Z,44.95
2023-08-26T08:21:12.718Z,44.05
2023-08-26T08:24:15.112Z,43.08
2023-08-26T08:27:17.512Z,41.71
2023-08-26T08:30:20.020Z,42.42
2023-08-26T08:33:22.488Z,42.36
2023-08-26T08:36:25.035Z,40.57
2023-08-26T08:39:27.149Z,39.68
2023-08-26T08:42:33.295Z,39.54
2023-08-26T08:45:35.506Z,39.38
2023-08-26T08:48:37.991Z,40.32
2023-08-26T08:51:40.459Z,39.52
2023-08-26T08:54:45.274Z,39.78
2023-08-26T08:57:49.730Z,39.62
2023-08-26T09:00:53.582Z,39.18
2023-08-26T09:03:55.809Z,38.89
2023-08-26T09:06:58.302Z,38.46
2023-08-26T09:10:02.856Z,38.26
2023-08-26T09:13:06.396Z,38.00
2023-08-26T09:16:08.794Z,37.94
2023-08-26T09:19:12.423Z,37.97
2023-08-26T09:22:14.545Z,37.80
2023-08-26T09:25:16.996Z,37.51
2023-08-26T09:28:19.776Z,37.02
2023-08-26T09:31:22.232Z,36.91
2023-08-26T09:34:26.125Z,37.03
2023-08-26T09:37:31.761Z,37.23
2023-08-26T09:40:34.060Z,37.44
2023-08-26T09:43:37.237Z,36.99
2023-08-26T09:46:40.741Z,36.53
2023-08-26T09:49:47.833Z,36.75
2023-08-26T09:52:50.831Z,36.66
2023-08-26T09:55:54.048Z,35.98
2023-08-26T09:58:57.313Z,35.45
2023-08-26T10:02:04.687Z,35.29
2023-08-26T10:05:10.874Z,34.49
2023-08-26T10:08:13.241Z,34.64
2023-08-26T10:11:18.859Z,33.82
2023-08-26T10:14:22.760Z,33.74
2023-08-26T10:17:27.434Z,33.36
2023-08-26T10:20:29.867Z,33.10
2023-08-26T10:23:32.986Z,32.70
2023-08-26T10:26:35.522Z,31.70
2023-08-26T10:29:38.123Z,31.20
2023-08-26T10:32:44.542Z,31.26
2023-08-26T10:36:07.349Z,31.21
2023-08-26T10:39:22.612Z,31.30
2023-08-26T10:42:25.083Z,30.90
2023-08-26T10:45:27.531Z,30.63
2023-08-26T10:48:30.169Z,30.78
2023-08-26T10:51:33.099Z,30.94
2023-08-26T10:54:36.449Z,31.35
2023-08-26T10:57:38.588Z,30.79
2023-08-26T11:00:42.648Z,30.75
2023-08-26T11:03:46.371Z,30.88
2023-08-26T11:06:48.927Z,30.82
2023-08-26T11:09:51.073Z,30.70
2023-08-26T11:12:53.739Z,30.70
2023-08-26T11:15:56.041Z,30.50
2023-08-26T11:18:58.690Z,30.36
2023-08-26T11:22:02.763Z,30.08
2023-08-26T11:25:06.433Z,29.84
2023-08-26T11:28:09.814Z,29.89
2023-08-26T11:31:12.335Z,29.95
2023-08-26T11:34:14.524Z,31.52
2023-08-26T11:37:19.394Z,30.64
2023-08-26T11:40:21.544Z,30.39
2023-08-26T11:43:24.959Z,30.43
2023-08-26T11:46:27.167Z,29.74
2023-08-26T11:49:29.666Z,29.90
2023-08-26T11:52:35.230Z,30.09
2023-08-26T11:55:37.983Z,29.50
2023-08-26T11:58:40.182Z,28.74
2023-08-26T12:01:42.639Z,29.26
2023-08-26T12:04:45.148Z,29.49
2023-08-26T12:07:51.067Z,29.28
2023-08-26T12:10:54.432Z,29.80
2023-08-26T12:13:56.710Z,29.09
2023-08-26T12:17:05.516Z,29.15
2023-08-26T12:20:19.593Z,29.34
2023-08-26T12:23:22.760Z,29.44
2023-08-26T12:26:24.889Z,29.42
2023-08-26T12:29:27.433Z,29.06
2023-08-26T12:32:29.590Z,29.41
2023-08-26T12:35:32.157Z,29.73
2023-08-26T12:38:34.315Z,29.36
2023-08-26T12:41:36.730Z,29.27
2023-08-26T12:44:38.807Z,29.43
2023-08-26T12:47:43.817Z,29.43
2023-08-26T12:50:46.401Z,29.60
2023-08-26T12:53:49.442Z,29.31
2023-08-26T12:56:51.734Z,29.47
2023-08-26T12:59:54.296Z,29.59
2023-08-26T13:02:56.851Z,29.72
2023-08-26T13:05:59.495Z,29.68
2023-08-26T13:09:01.830Z,29.97
2023-08-26T13:12:04.485Z,29.82
2023-08-26T13:15:06.819Z,29.86
2023-08-26T13:18:10.351Z,29.99
2023-08-26T13:21:13.221Z,29.80
2023-08-26T13:24:16.381Z,30.08
2023-08-26T13:27:18.587Z,29.87
2023-08-26T13:30:20.968Z,30.10
2023-08-26T13:33:23.240Z,30.13
2023-08-26T13:36:25.897Z,30.31
2023-08-26T13:39:28.588Z,30.52
2023-08-26T13:42:31.038Z,30.57
2023-08-26T13:45:34.196Z,30.74
2023-08-26T13:48:36.788Z,30.42
2023-08-26T13:51:38.948Z,30.61
2023-08-26T13:54:41.306Z,30.64
2023-08-26T13:57:43.637Z,30.64
2023-08-26T14:00:46.033Z,30.90
2023-08-26T14:03:48.593Z,30.98
2023-08-26T14:06:51.325Z,30.99
2023-08-26T14:09:53.776Z,30.97
2023-08-26T14:12:55.969Z,31.40
2023-08-26T14:15:58.466Z,31.59
2023-08-26T14:19:01.606Z,31.42
2023-08-26T14:22:05.251Z,31.68
2023-08-26T14:25:07.527Z,31.56
2023-08-26T14:28:10.298Z,31.52
2023-08-26T14:31:12.668Z,32.11
2023-08-26T14:34:15.097Z,31.68
2023-08-26T14:37:17.279Z,31.65
2023-08-26T14:40:19.718Z,31.74
2023-08-26T14:43:22.011Z,32.04
2023-08-26T14:46:24.647Z,31.96
2023-08-26T14:49:26.839Z,31.87
2023-08-26T14:52:29.307Z,31.69
2023-08-26T14:55:31.576Z,31.97
2023-08-26T14:58:34.085Z,32.23
2023-08-26T15:01:36.341Z,32.12
2023-08-26T15:04:39.168Z,32.07
2023-08-26T15:07:41.410Z,31.81
2023-08-26T15:10:43.843Z,32.19
2023-08-26T15:13:46.191Z,32.16
2023-08-26T15:16:48.662Z,31.99
2023-08-26T15:19:51.089Z,32.16
2023-08-26T15:22:53.469Z,32.33
2023-08-26T15:25:56.971Z,32.23
2023-08-26T15:28:59.501Z,32.49
2023-08-26T15:32:01.752Z,32.62
2023-08-26T15:35:04.495Z,32.64
2023-08-26T15:38:07.732Z,32.78
2023-08-26T15:41:10.529Z,32.63
2023-08-26T15:44:13.602Z,32.95
2023-08-26T15:47:16.105Z,32.89
2023-08-26T15:50:18.286Z,33.06
2023-08-26T15:53:22.641Z,33.27
2023-08-26T15:56:24.929Z,34.12
2023-08-26T15:59:27.388Z,34.26
2023-08-26T16:02:29.809Z,34.42
2023-08-26T16:05:38.705Z,34.90
2023-08-26T16:08:40.944Z,34.83
2023-08-26T16:11:43.437Z,34.89
2023-08-26T16:14:45.546Z,34.98
2023-08-26T16:17:48.027Z,35.09
2023-08-26T16:20:50.510Z,35.33
2023-08-26T16:23:53.011Z,35.47
2023-08-26T16:26:55.254Z,35.57
2023-08-26T16:29:57.713Z,35.67
2023-08-26T16:33:00.126Z,35.73
2023-08-26T16:36:07.252Z,35.79
2023-08-26T16:39:10.237Z,36.00
2023-08-26T16:42:14.855Z,36.12
2023-08-26T16:45:16.992Z,36.32
2023-08-26T16:48:19.549Z,36.54
2023-08-26T16:51:21.757Z,36.56
2023-08-26T16:54:24.184Z,36.78
2023-08-26T16:57:26.384Z,36.86
2023-08-26T17:00:28.780Z,37.02
2023-08-26T17:03:31.086Z,37.08
2023-08-26T17:06:33.540Z,37.07
2023-08-26T17:09:35.676Z,37.19
2023-08-26T17:12:38.421Z,37.11
2023-08-26T17:15:40.570Z,37.25
2023-08-26T17:18:43.290Z,37.34
2023-08-26T17:21:45.382Z,37.41
2023-08-26T17:24:48.027Z,37.54
2023-08-26T17:27:50.200Z,37.73
2023-08-26T17:30:56.177Z,37.85
2023-08-26T17:33:58.347Z,37.85
2023-08-26T17:37:00.821Z,38.00
2023-08-26T17:40:03.057Z,37.95
2023-08-26T17:43:05.478Z,38.01
2023-08-26T17:46:07.709Z,38.08
2023-08-26T17:49:10.412Z,38.17
2023-08-26T17:52:12.512Z,38.12
2023-08-26T17:55:15.083Z,38.08
2023-08-26T17:58:17.307Z,38.20
2023-08-26T18:01:19.878Z,38.26
2023-08-26T18:04:22.323Z,38.36
2023-08-26T18:07:24.655Z,38.41
2023-08-26T18:10:27.140Z,38.55
2023-08-26T18:13:29.575Z,38.49
2023-08-26T18:16:32.103Z,38.65
2023-08-26T18:19:35.708Z,38.67
2023-08-26T18:22:38.383Z,38.81
2023-08-26T18:25:40.533Z,38.86
2023-08-26T18:28:42.966Z,38.97
2023-08-26T18:31:45.506Z,39.04
2023-08-26T18:34:47.957Z,39.16
2023-08-26T18:37:50.045Z,39.26
2023-08-26T18:40:56.223Z,39.44
2023-08-26T18:43:58.325Z,39.44
2023-08-26T18:47:00.910Z,39.55
2023-08-26T18:50:03.117Z,39.77
2023-08-26T18:53:09.683Z,40.01
2023-08-26T18:56:11.852Z,40.01
2023-08-26T18:59:14.627Z,40.16
2023-08-26T19:02:16.766Z,40.35
2023-08-26T19:05:21.814Z,40.30
2023-08-26T19:08:24.027Z,40.64
2023-08-26T19:11:26.818Z,40.65
2023-08-26T19:14:28.972Z,41.37
2023-08-26T19:17:31.379Z,41.05
2023-08-26T19:20:38.206Z,41.42
2023-08-26T19:23:40.796Z,41.59
2023-08-26T19:26:45.136Z,41.77
2023-08-26T19:29:47.894Z,42.73
2023-08-26T19:32:52.934Z,42.82
2023-08-26T19:35:55.510Z,42.50
2023-08-26T19:38:57.799Z,42.64
2023-08-26T19:42:00.226Z,42.91
2023-08-26T19:45:02.424Z,43.00
2023-08-26T19:48:06.456Z,43.10
2023-08-26T19:51:08.894Z,43.10
2023-08-26T19:54:11.344Z,43.28
2023-08-26T19:57:20.568Z,43.41
2023-08-26T20:00:22.994Z,43.32
2023-08-26T20:03:25.471Z,43.45
2023-08-26T20:06:33.256Z,43.50
2023-08-26T20:09:37.814Z,43.69
2023-08-26T20:12:39.989Z,43.78
2023-08-26T20:15:42.451Z,43.56
2023-08-26T20:18:44.603Z,43.85
2023-08-26T20:21:51.160Z,44.10
2023-08-26T20:24:58.649Z,43.84
2023-08-26T20:28:01.148Z,44.25
2023-08-26T20:31:06.304Z,44.29
2023-08-26T20:34:08.815Z,43.88
2023-08-26T20:37:13.945Z,43.82
2023-08-26T20:40:16.590Z,43.56
2023-08-26T20:43:19.716Z,43.50
2023-08-26T20:46:22.222Z,43.40
2023-08-26T20:49:24.398Z,43.41
2023-08-26T20:52:26.937Z,43.49
2023-08-26T20:55:29.095Z,43.56
2023-08-26T20:58:31.512Z,43.45
2023-08-26T21:01:34.695Z,43.69
2023-08-26T21:04:37.288Z,44.24
2023-08-26T21:07:39.454Z,44.64
2023-08-26T21:10:41.935Z,44.00
2023-08-26T21:13:44.098Z,44.29
2023-08-26T21:16:46.502Z,44.75
2023-08-26T21:19:48.707Z,45.18
2023-08-26T21:22:52.111Z,44.81
2023-08-26T21:25:54.692Z,44.61
2023-08-26T21:28:57.216Z,45.15
2023-08-26T21:31:59.315Z,44.63
2023-08-26T21:35:02.302Z,44.34
2023-08-26T21:38:04.619Z,44.35
2023-08-26T21:41:07.116Z,44.52
2023-08-26T21:44:09.253Z,45.04
2023-08-26T21:47:11.703Z,44.49
2023-08-26T21:50:13.957Z,44.54
2023-08-26T21:53:16.371Z,44.66
2023-08-26T21:56:20.044Z,44.39
2023-08-26T21:59:22.531Z,44.09
2023-08-26T22:02:24.717Z,44.31
2023-08-26T22:05:31.811Z,44.37
2023-08-26T22:08:33.928Z,44.61
2023-08-26T22:11:36.642Z,44.27
2023-08-26T22:14:38.845Z,44.33
2023-08-26T22:17:41.389Z,44.36
2023-08-26T22:20:44.720Z,44.36
2023-08-26T22:23:47.803Z,44.30
2023-08-26T22:26:50.012Z,44.32
2023-08-26T22:29:52.751Z,44.36
2023-08-26T22:32:54.964Z,44.30
2023-08-26T22:35:57.372Z,44.63
2023-08-26T22:39:04.143Z,45.05
2023-08-26T22:42:13.086Z,44.93
2023-08-26T22:45:15.175Z,45.26
2023-08-26T22:48:17.554Z,45.58
2023-08-26T22:51:19.656Z,45.51
2023-08-26T22:54:22.067Z,45.63
2023-08-26T22:57:24.248Z,45.91
2023-08-26T23:00:26.669Z,45.77
2023-08-26T23:03:29.038Z,46.33
2023-08-26T23:06:31.604Z,45.94
2023-08-26T23:09:34.879Z,45.89
2023-08-26T23:12:37.535Z,46.12
2023-08-26T23:15:39.646Z,46.06
2023-08-26T23:18:42.071Z,46.16
2023-08-26T23:21:44.201Z,46.53
2023-08-26T23:24:46.716Z,46.30
2023-08-26T23:27:48.890Z,46.69
2023-08-26T23:30:51.385Z,46.74
2023-08-26T23:33:53.969Z,46.83
2023-08-26T23:36:57.322Z,47.28
2023-08-26T23:39:59.372Z,46.91
2023-08-26T23:43:02.015Z,47.56
2023-08-26T23:46:04.391Z,47.62
2023-08-26T23:49:06.950Z,47.68
2023-08-26T23:52:09.128Z,47.85
2023-08-26T23:55:12.046Z,47.81
2023-08-26T23:58:14.158Z,47.76
